Time;durP1;ratioP1;P1;durP2;ratioP2;P2;SDS_P1;SDS_P2;PMS_P1;PMS_P2;Temp;Humidity;BMP_temperature;BMP_pressure;BME280_temperature;BME280_humidity;BME280_pressure;Samples;Min_cycle;Max_cycle;Signal;HPM_P1;HPM_P2
2022/01/03 00:01:43;;;;;;;6.75;1.05;;;25.70;99.90;;;;;;5001706;28;20045;-70
2022/01/03 00:04:13;;;;;;;4.10;1.17;;;25.30;99.90;;;;;;4976313;28;20039;-72
2022/01/03 00:06:41;;;;;;;5.28;1.63;;;25.30;99.90;;;;;;4977689;28;20031;-69
2022/01/03 00:09:09;;;;;;;5.72;0.70;;;25.40;99.90;;;;;;4977907;28;20030;-71
2022/01/03 00:11:39;;;;;;;4.10;1.10;;;25.20;99.90;;;;;;4976260;28;20432;-69
2022/01/03 00:14:07;;;;;;;6.97;1.20;;;25.00;99.90;;;;;;4977670;28;20399;-69
2022/01/03 00:16:35;;;;;;;4.10;1.02;;;24.70;99.90;;;;;;4977680;28;20503;-69
2022/01/03 00:19:03;;;;;;;5.63;1.65;;;24.50;99.90;;;;;;4977559;28;20035;-70
2022/01/03 00:21:43;;;;;;;7.72;1.20;;;24.70;99.90;;;;;;4977485;28;20034;-70
2022/01/03 00:24:12;;;;;;;2.70;0.63;;;24.90;99.90;;;;;;4976103;28;20396;-69
2022/01/03 00:26:41;;;;;;;4.10;0.65;;;25.10;99.90;;;;;;4977283;28;20051;-68
2022/01/03 00:29:19;;;;;;;3.92;0.88;;;25.30;99.90;;;;;;4995412;28;20384;-71
2022/01/03 00:31:47;;;;;;;7.10;0.95;;;25.50;99.90;;;;;;5004167;28;20100;-70
2022/01/03 00:34:17;;;;;;;5.82;0.98;;;25.80;99.90;;;;;;5005516;28;20057;-69
2022/01/03 00:36:52;;;;;;;5.22;1.05;;;25.40;99.90;;;;;;5005178;28;20031;-69
2022/01/03 00:39:19;;;;;;;3.80;0.90;;;25.30;99.90;;;;;;5004869;28;20053;-69
2022/01/03 00:41:49;;;;;;;5.45;1.23;;;25.20;99.90;;;;;;5004755;28;20031;-69
2022/01/03 00:44:17;;;;;;;4.47;0.77;;;25.40;99.90;;;;;;5006086;28;20079;-72
2022/01/03 00:46:46;;;;;;;5.28;0.95;;;25.70;99.90;;;;;;5006758;28;20025;-68
2022/01/03 00:49:14;;;;;;;2.22;0.77;;;26.10;99.90;;;;;;5002962;28;20018;-73
2022/01/03 00:51:42;;;;;;;2.42;0.45;;;26.00;99.90;;;;;;5003722;28;20391;-69
2022/01/03 00:54:09;;;;;;;2.58;0.70;;;26.00;99.90;;;;;;5006550;28;20067;-70
2022/01/03 00:56:43;;;;;;;1.65;0.47;;;26.00;99.90;;;;;;5005537;28;20057;-70
2022/01/03 00:59:31;;;;;;;4.63;1.08;;;26.30;99.90;;;;;;5002249;28;20527;-69
2022/01/03 01:02:01;;;;;;;2.70;1.02;;;26.50;99.90;;;;;;5003761;28;20065;-69
2022/01/03 01:04:29;;;;;;;3.70;0.75;;;26.50;99.60;;;;;;5004471;28;20022;-69
2022/01/03 01:06:58;;;;;;;2.75;1.20;;;26.30;99.40;;;;;;5005401;28;20022;-73
2022/01/03 01:09:28;;;;;;;4.95;0.98;;;26.50;99.90;;;;;;4997006;28;20030;-73
2022/01/03 01:11:59;;;;;;;4.47;0.70;;;26.40;99.00;;;;;;4993701;28;20493;-70
2022/01/03 01:14:28;;;;;;;4.25;0.95;;;26.40;99.50;;;;;;4994845;28;20030;-69
2022/01/03 01:16:56;;;;;;;5.00;1.08;;;26.50;99.20;;;;;;4994665;28;20030;-69
2022/01/03 01:19:26;;;;;;;6.15;1.65;;;26.30;99.40;;;;;;4995042;28;20022;-70
2022/01/03 01:21:54;;;;;;;6.78;0.98;;;26.50;99.70;;;;;;4994710;28;20027;-69
2022/01/03 01:24:24;;;;;;;4.13;0.65;;;26.80;99.90;;;;;;4994434;28;20207;-69
2022/01/03 01:29:39;;;;;;;3.80;0.82;;;26.50;98.60;;;;;;4974767;28;20136;-71
2022/01/03 01:32:12;;;;;;;3.38;1.08;;;26.80;99.90;;;;;;4975160;28;20050;-70
2022/01/03 01:34:44;;;;;;;9.13;1.40;;;26.90;99.70;;;;;;4975256;28;20472;-71
2022/01/03 01:37:12;;;;;;;6.30;1.17;;;26.60;99.90;;;;;;4984911;28;20072;-72
2022/01/03 01:39:43;;;;;;;5.55;0.65;;;26.50;99.90;;;;;;5008622;28;20391;-72
2022/01/03 01:42:16;;;;;;;4.25;0.85;;;26.70;99.90;;;;;;5014058;28;20026;-72
2022/01/03 01:44:49;;;;;;;2.78;0.85;;;26.60;99.90;;;;;;5006544;28;20061;-72
2022/01/03 01:47:18;;;;;;;3.13;0.82;;;26.80;99.90;;;;;;4994453;28;20014;-72
2022/01/03 01:49:48;;;;;;;5.47;1.10;;;27.20;99.90;;;;;;4994431;28;20033;-72
2022/01/03 01:52:22;;;;;;;3.00;0.93;;;27.00;99.50;;;;;;4994440;28;20168;-74
2022/01/03 01:54:57;;;;;;;8.23;1.65;;;27.00;99.90;;;;;;4994470;28;20098;-73
2022/01/03 01:57:44;;;;;;;3.50;0.95;;;27.20;99.90;;;;;;4990310;28;20046;-74
2022/01/03 02:00:14;;;;;;;5.00;1.48;;;27.40;99.90;;;;;;4984762;28;20030;-72
2022/01/03 02:02:58;;;;;;;3.28;1.00;;;27.00;99.50;;;;;;4984676;28;20034;-70
2022/01/03 02:05:40;;;;;;;4.05;1.40;;;26.80;99.80;;;;;;4978555;28;20050;-74
2022/01/03 02:08:29;;;;;;;6.88;1.58;;;27.00;99.90;;;;;;4992226;28;20022;-70
2022/01/03 02:11:17;;;;;;;8.68;1.55;;;27.00;99.90;;;;;;4990888;28;20027;-72
2022/01/03 02:13:46;;;;;;;5.35;0.93;;;27.20;99.90;;;;;;4993123;28;20030;-74
2022/01/03 02:16:13;;;;;;;6.95;1.42;;;27.00;99.90;;;;;;4994057;28;20550;-71
2022/01/03 02:18:43;;;;;;;9.55;1.42;;;27.10;99.90;;;;;;4993967;28;20022;-73
2022/01/03 02:21:11;;;;;;;4.20;0.70;;;27.50;99.90;;;;;;4987248;28;20022;-73
2022/01/03 02:23:38;;;;;;;4.22;1.13;;;27.70;99.90;;;;;;4973825;28;20463;-72
2022/01/03 02:26:06;;;;;;;3.47;1.08;;;27.80;99.90;;;;;;4973654;28;20089;-72
2022/01/03 02:28:34;;;;;;;3.58;0.82;;;27.70;98.90;;;;;;4974364;28;20027;-71
2022/01/03 02:31:02;;;;;;;7.38;0.70;;;27.40;97.60;;;;;;4974525;28;20506;-73
2022/01/03 02:33:29;;;;;;;2.45;0.77;;;27.50;97.70;;;;;;4974517;28;20030;-71
2022/01/03 02:35:58;;;;;;;9.13;1.10;;;27.50;96.60;;;;;;4978503;28;20037;-74
2022/01/03 02:38:25;;;;;;;2.20;0.65;;;27.20;94.80;;;;;;4991072;28;20022;-73
2022/01/03 02:40:53;;;;;;;4.25;0.80;;;26.80;94.90;;;;;;4991795;28;20085;-72
2022/01/03 02:43:22;;;;;;;5.68;0.60;;;27.00;96.50;;;;;;4994387;28;20053;-76
2022/01/03 02:45:50;;;;;;;1.42;0.40;;;27.10;94.30;;;;;;4993504;28;20029;-69
2022/01/03 02:48:23;;;;;;;1.70;0.45;;;27.20;92.00;;;;;;4988779;28;20109;-74
2022/01/03 02:50:51;;;;;;;1.35;0.70;;;27.40;92.20;;;;;;4994400;28;20034;-74
2022/01/03 02:53:19;;;;;;;2.78;0.68;;;27.50;93.00;;;;;;4993710;28;20030;-73
2022/01/03 02:55:47;;;;;;;3.03;0.60;;;27.20;92.60;;;;;;4993769;28;20029;-76
2022/01/03 02:58:14;;;;;;;6.32;1.13;;;27.10;93.10;;;;;;4993815;28;20178;-73
2022/01/03 03:00:45;;;;;;;4.57;0.88;;;27.40;94.60;;;;;;4993942;28;20200;-72
2022/01/03 03:03:14;;;;;;;6.45;0.90;;;27.90;94.10;;;;;;4993198;28;20133;-73
2022/01/03 03:05:42;;;;;;;7.00;1.45;;;27.60;94.90;;;;;;4993795;28;20470;-73
2022/01/03 03:08:11;;;;;;;6.38;1.02;;;27.20;95.70;;;;;;4975306;28;20031;-74
2022/01/03 03:10:39;;;;;;;5.45;1.02;;;27.20;96.70;;;;;;4972968;28;20031;-72
2022/01/03 03:13:07;;;;;;;4.47;1.20;;;27.70;96.80;;;;;;4977485;28;20076;-71
2022/01/03 03:15:35;;;;;;;5.40;1.25;;;27.40;96.30;;;;;;4988385;28;20018;-74
2022/01/03 03:18:04;;;;;;;4.43;1.15;;;27.20;96.80;;;;;;4991485;28;20030;-72
2022/01/03 03:20:33;;;;;;;2.72;0.77;;;27.20;97.40;;;;;;4983948;28;20633;-73
2022/01/03 03:23:02;;;;;;;4.38;1.00;;;27.20;97.50;;;;;;4984220;28;20042;-73
2022/01/03 03:25:32;;;;;;;4.45;1.10;;;27.20;96.90;;;;;;4977005;28;20608;-71
2022/01/03 03:28:03;;;;;;;2.67;0.70;;;27.30;97.30;;;;;;4976916;28;20379;-72
2022/01/03 03:30:34;;;;;;;4.72;0.60;;;27.20;98.00;;;;;;4976378;28;20380;-72
2022/01/03 03:33:23;;;;;;;3.45;1.20;;;27.30;98.80;;;;;;4976396;28;20023;-72
2022/01/03 03:35:52;;;;;;;4.68;0.93;;;27.60;97.10;;;;;;4989202;28;20019;-71
2022/01/03 03:38:23;;;;;;;8.38;0.77;;;27.50;98.00;;;;;;4996007;28;20038;-72
2022/01/03 03:40:51;;;;;;;4.47;1.30;;;27.50;98.90;;;;;;4996009;28;20049;-71
2022/01/03 03:43:20;;;;;;;5.95;1.35;;;27.50;99.90;;;;;;4995722;28;20483;-72
2022/01/03 03:45:50;;;;;;;3.78;0.98;;;27.60;98.60;;;;;;4995733;28;20026;-72
2022/01/03 03:48:19;;;;;;;6.40;1.17;;;27.10;99.40;;;;;;4995961;28;20080;-71
2022/01/03 03:50:47;;;;;;;5.13;1.25;;;26.90;99.80;;;;;;4994874;28;20161;-72
2022/01/03 03:53:16;;;;;;;8.48;1.48;;;27.10;99.90;;;;;;4995963;28;20025;-72
2022/01/03 03:55:44;;;;;;;5.15;1.00;;;26.60;99.90;;;;;;4995878;28;20429;-72
2022/01/03 03:58:13;;;;;;;4.80;0.82;;;26.20;99.90;;;;;;4995778;28;20026;-74
2022/01/03 04:00:41;;;;;;;4.53;1.15;;;26.20;99.90;;;;;;4995877;28;20486;-73
2022/01/03 04:03:09;;;;;;;5.50;1.80;;;26.30;99.90;;;;;;4995418;28;20030;-73
2022/01/03 04:05:36;;;;;;;6.78;1.40;;;26.70;99.90;;;;;;4995288;28;20022;-74
2022/01/03 04:08:04;;;;;;;6.28;1.13;;;26.70;99.90;;;;;;4995680;28;20356;-73
2022/01/03 04:10:32;;;;;;;8.60;1.13;;;26.70;99.90;;;;;;4995663;28;20023;-72
2022/01/03 04:13:00;;;;;;;7.90;1.00;;;26.40;99.90;;;;;;4995655;28;20111;-74
2022/01/03 04:15:27;;;;;;;6.05;1.08;;;26.30;99.90;;;;;;4995561;28;20025;-74
2022/01/03 04:17:55;;;;;;;7.32;0.98;;;26.60;99.90;;;;;;4995283;28;20029;-72
2022/01/03 04:20:25;;;;;;;11.70;1.40;;;26.80;99.90;;;;;;4995507;28;20566;-72
2022/01/03 04:22:53;;;;;;;5.32;1.27;;;26.90;99.90;;;;;;4994772;28;20533;-71
2022/01/03 04:25:20;;;;;;;7.40;1.35;;;27.30;99.90;;;;;;4995318;28;20031;-74
2022/01/03 04:27:48;;;;;;;4.32;1.20;;;27.00;99.90;;;;;;4994962;28;20066;-74
2022/01/03 04:30:16;;;;;;;5.28;1.30;;;26.30;99.90;;;;;;4995166;28;20048;-73
2022/01/03 04:32:43;;;;;;;5.60;1.10;;;25.90;99.90;;;;;;4995240;28;20018;-72
2022/01/03 04:35:11;;;;;;;8.15;1.52;;;26.20;99.90;;;;;;4995195;28;20026;-73
2022/01/03 04:37:39;;;;;;;6.28;1.15;;;26.40;99.90;;;;;;4995217;28;20018;-71
2022/01/03 04:40:07;;;;;;;2.63;0.65;;;26.00;99.90;;;;;;4995004;28;20030;-72
2022/01/03 04:42:35;;;;;;;5.03;1.55;;;26.10;99.90;;;;;;4993714;28;20069;-72
2022/01/03 04:45:03;;;;;;;7.43;1.42;;;26.30;99.90;;;;;;4994930;28;20503;-74
2022/01/03 04:47:30;;;;;;;4.97;1.58;;;26.70;99.90;;;;;;4994348;28;20352;-72
2022/01/03 04:49:58;;;;;;;4.55;1.17;;;26.30;99.90;;;;;;4994907;28;20070;-73
2022/01/03 04:52:26;;;;;;;2.47;1.02;;;26.60;99.90;;;;;;4994739;28;20030;-73
2022/01/03 04:54:53;;;;;;;4.95;0.82;;;27.20;99.90;;;;;;4994769;28;20018;-72
2022/01/03 04:57:21;;;;;;;7.43;1.50;;;27.30;99.90;;;;;;4994672;28;20022;-72
2022/01/03 04:59:49;;;;;;;4.30;1.00;;;26.90;99.90;;;;;;4994671;28;20105;-72
2022/01/03 05:02:17;;;;;;;5.05;1.48;;;27.20;99.90;;;;;;4994587;28;20109;-72
2022/01/03 05:04:44;;;;;;;5.15;1.17;;;27.10;99.90;;;;;;4984371;28;20810;-74
2022/01/03 05:07:12;;;;;;;3.85;1.30;;;27.00;99.90;;;;;;4977892;28;20037;-74
2022/01/03 05:09:40;;;;;;;3.13;0.60;;;26.70;99.90;;;;;;4975365;28;20033;-72
2022/01/03 05:12:08;;;;;;;5.82;0.93;;;26.70;99.90;;;;;;4975337;28;20073;-73
2022/01/03 05:14:36;;;;;;;3.38;0.90;;;26.60;99.90;;;;;;4975384;28;20073;-72
2022/01/03 05:17:04;;;;;;;3.15;1.02;;;27.00;99.90;;;;;;4975272;28;20030;-72
2022/01/03 05:19:31;;;;;;;7.80;1.17;;;27.20;99.90;;;;;;4975239;28;20041;-71
2022/01/03 05:21:59;;;;;;;4.22;0.80;;;27.00;99.90;;;;;;4975864;28;20022;-72
2022/01/03 05:24:26;;;;;;;4.25;1.25;;;26.60;99.90;;;;;;4977598;28;20046;-72
2022/01/03 05:26:56;;;;;;;4.90;1.23;;;26.20;99.90;;;;;;4974876;28;20046;-71
2022/01/03 05:29:24;;;;;;;5.53;1.23;;;25.80;99.90;;;;;;4975206;28;20467;-71
2022/01/03 05:31:52;;;;;;;6.57;1.23;;;25.40;99.90;;;;;;4975838;28;20110;-71
2022/01/03 05:34:19;;;;;;;5.97;1.17;;;25.20;99.90;;;;;;4992287;28;20030;-71
2022/01/03 05:36:47;;;;;;;4.78;1.20;;;25.40;99.90;;;;;;4993989;28;20037;-71
2022/01/03 05:39:15;;;;;;;9.98;1.38;;;25.90;99.90;;;;;;4993986;28;20042;-71
2022/01/03 05:41:43;;;;;;;5.15;1.33;;;26.20;99.90;;;;;;4993962;28;20026;-71
2022/01/03 05:44:11;;;;;;;6.43;1.05;;;26.60;99.90;;;;;;4993932;28;20092;-71
2022/01/03 05:46:39;;;;;;;12.65;1.55;;;26.40;99.90;;;;;;4993328;28;20041;-71
2022/01/03 05:49:08;;;;;;;9.02;0.82;;;25.80;99.90;;;;;;4993714;28;20038;-69
2022/01/03 05:51:35;;;;;;;5.18;1.50;;;25.70;99.90;;;;;;4985134;28;20018;-73
2022/01/03 05:54:04;;;;;;;6.10;1.55;;;26.00;99.90;;;;;;4987979;28;20018;-72
2022/01/03 05:56:32;;;;;;;5.95;1.42;;;26.20;99.90;;;;;;4990826;28;20074;-71
2022/01/03 05:58:59;;;;;;;6.88;1.50;;;26.10;99.90;;;;;;4992794;28;20503;-73
2022/01/03 06:01:28;;;;;;;6.50;1.52;;;26.00;99.90;;;;;;4993170;28;20022;-71
2022/01/03 06:04:01;;;;;;;7.07;1.75;;;25.70;99.90;;;;;;4993137;28;20037;-70
2022/01/03 06:06:53;;;;;;;7.25;1.05;;;25.50;99.90;;;;;;4992795;28;20033;-71
2022/01/03 06:09:19;;;;;;;4.30;0.85;;;25.80;99.90;;;;;;4993346;28;20038;-73
2022/01/03 06:11:47;;;;;;;4.82;1.13;;;25.90;99.90;;;;;;4993116;28;20026;-72
2022/01/03 06:14:21;;;;;;;5.80;1.42;;;26.10;99.90;;;;;;4992946;28;20030;-73
2022/01/03 06:16:50;;;;;;;5.27;0.73;;;26.20;99.90;;;;;;4992980;28;20064;-71
2022/01/03 06:19:18;;;;;;;3.65;0.98;;;26.20;99.90;;;;;;4993073;28;20256;-73
2022/01/03 06:21:46;;;;;;;4.82;1.25;;;26.10;99.90;;;;;;4992135;28;20106;-71
2022/01/03 06:24:16;;;;;;;5.88;1.25;;;25.80;99.90;;;;;;4992177;28;20034;-74
2022/01/03 06:26:44;;;;;;;1.77;0.82;;;25.90;99.90;;;;;;4991994;28;20092;-73
2022/01/03 06:29:13;;;;;;;6.22;1.23;;;25.90;99.90;;;;;;4991772;28;20018;-74
2022/01/03 06:31:41;;;;;;;9.02;1.52;;;25.90;99.90;;;;;;4992922;28;20022;-74
2022/01/03 06:34:09;;;;;;;4.20;1.00;;;26.10;99.90;;;;;;4992622;28;20022;-72
2022/01/03 06:36:36;;;;;;;5.25;0.80;;;26.00;99.90;;;;;;4992718;28;20100;-74
2022/01/03 06:39:05;;;;;;;4.90;1.48;;;25.70;99.90;;;;;;4992823;28;20476;-71
2022/01/03 06:41:32;;;;;;;6.03;1.08;;;25.40;99.90;;;;;;4992584;28;20430;-72
2022/01/03 06:44:00;;;;;;;9.02;1.00;;;25.30;99.90;;;;;;4991097;28;20115;-71
2022/01/03 06:46:27;;;;;;;8.35;1.80;;;25.60;99.90;;;;;;4990470;28;20026;-72
2022/01/03 06:48:54;;;;;;;8.82;1.40;;;25.90;99.90;;;;;;4989888;28;20026;-73
2022/01/03 06:51:22;;;;;;;5.55;1.50;;;26.30;99.90;;;;;;4991001;28;20391;-71
2022/01/03 06:53:49;;;;;;;5.95;1.25;;;26.40;99.90;;;;;;4992545;28;20026;-73
2022/01/03 06:56:16;;;;;;;6.85;1.42;;;26.60;99.90;;;;;;4992586;28;20093;-72
2022/01/03 06:58:46;;;;;;;4.07;1.25;;;26.40;99.90;;;;;;4992509;28;20026;-72
2022/01/03 07:01:14;;;;;;;9.80;1.73;;;26.30;99.90;;;;;;4993912;28;20022;-75
2022/01/03 07:03:41;;;;;;;7.68;1.10;;;25.90;99.90;;;;;;4993991;28;20061;-73
2022/01/03 07:06:08;;;;;;;4.75;1.27;;;26.10;99.90;;;;;;4993732;28;20050;-73
2022/01/03 07:08:35;;;;;;;5.10;1.02;;;25.70;99.90;;;;;;4993924;28;20473;-76
2022/01/03 07:11:03;;;;;;;3.45;1.02;;;25.10;99.90;;;;;;4993546;28;20094;-70
2022/01/03 07:13:40;;;;;;;5.20;1.02;;;25.00;99.90;;;;;;4993830;28;20492;-72
2022/01/03 07:19:06;;;;;;;7.68;1.05;;;25.10;99.90;;;;;;4992609;28;20403;-74
2022/01/03 07:21:34;;;;;;;5.53;1.30;;;25.20;99.90;;;;;;4992403;28;20390;-71
2022/01/03 07:24:02;;;;;;;7.28;1.48;;;25.10;99.90;;;;;;4993570;28;20030;-72
2022/01/03 07:26:30;;;;;;;5.88;1.35;;;24.80;99.90;;;;;;4993206;28;20105;-72
2022/01/03 07:28:57;;;;;;;6.22;1.23;;;24.70;99.90;;;;;;4993601;28;20026;-73
2022/01/03 07:31:24;;;;;;;8.75;1.25;;;24.60;99.90;;;;;;4992778;28;20109;-75
2022/01/03 07:33:52;;;;;;;12.43;1.65;;;24.60;99.90;;;;;;4993498;28;20033;-73
2022/01/03 07:36:19;;;;;;;7.38;1.20;;;24.30;99.90;;;;;;4993201;28;20146;-74
2022/01/03 07:38:48;;;;;;;5.32;1.30;;;24.40;99.90;;;;;;4993702;28;20025;-73
2022/01/03 07:41:15;;;;;;;3.63;0.90;;;24.50;99.90;;;;;;4993708;28;20039;-73
2022/01/03 07:43:44;;;;;;;6.10;1.50;;;24.40;99.90;;;;;;4992964;28;20488;-72
2022/01/03 07:46:12;;;;;;;7.15;1.27;;;24.50;99.90;;;;;;4992574;28;20030;-73
2022/01/03 07:48:39;;;;;;;3.33;1.25;;;24.70;99.90;;;;;;4993475;28;20081;-73
2022/01/03 07:51:07;;;;;;;5.57;1.73;;;25.00;99.90;;;;;;4993012;28;20023;-74
2022/01/03 07:53:34;;;;;;;5.82;1.05;;;24.90;99.90;;;;;;4993613;28;20038;-73
2022/01/03 07:56:04;;;;;;;7.57;1.30;;;24.60;99.90;;;;;;4991849;28;20029;-73
2022/01/03 07:58:32;;;;;;;7.03;1.48;;;24.60;99.90;;;;;;4991893;28;20100;-74
2022/01/03 08:00:59;;;;;;;8.00;2.15;;;24.30;99.90;;;;;;4992288;28;20022;-74
2022/01/03 08:03:27;;;;;;;10.45;1.67;;;24.10;99.90;;;;;;4992579;28;20508;-74
2022/01/03 08:05:54;;;;;;;5.28;1.23;;;23.90;99.90;;;;;;4992461;28;20101;-79
2022/01/03 08:08:22;;;;;;;7.35;1.80;;;23.70;99.90;;;;;;4992706;28;20030;-74
2022/01/03 08:10:50;;;;;;;11.57;2.13;;;23.60;99.90;;;;;;4992489;28;20026;-73
2022/01/03 08:13:17;;;;;;;6.97;1.65;;;23.60;99.90;;;;;;4992533;28;20399;-76
2022/01/03 08:15:45;;;;;;;10.57;1.58;;;23.60;99.90;;;;;;4992458;28;20084;-76
2022/01/03 08:18:13;;;;;;;6.88;1.80;;;23.70;99.90;;;;;;4992544;28;20026;-75
2022/01/03 08:20:40;;;;;;;6.38;1.45;;;23.60;99.90;;;;;;4992508;28;21711;-73
2022/01/03 08:23:08;;;;;;;9.60;1.90;;;23.60;99.90;;;;;;4993592;28;20057;-75
2022/01/03 08:25:38;;;;;;;5.45;1.90;;;23.50;99.90;;;;;;4987774;28;20015;-74
2022/01/03 08:28:07;;;;;;;5.88;1.95;;;23.50;99.90;;;;;;4976872;28;20442;-74
2022/01/03 08:30:36;;;;;;;6.68;1.85;;;23.60;99.90;;;;;;4976637;28;20461;-74
2022/01/03 08:33:04;;;;;;;8.73;2.00;;;23.50;99.90;;;;;;4982802;28;20026;-77
2022/01/03 08:35:32;;;;;;;8.00;1.85;;;23.40;99.90;;;;;;4978623;28;20026;-72
2022/01/03 08:38:01;;;;;;;8.65;1.77;;;23.40;99.90;;;;;;4978773;28;20031;-74
2022/01/03 08:40:28;;;;;;;10.73;1.88;;;23.30;99.90;;;;;;4980705;28;20102;-74
2022/01/03 08:42:55;;;;;;;5.40;1.40;;;23.20;99.90;;;;;;4976974;28;20431;-75
2022/01/03 08:45:23;;;;;;;7.35;1.80;;;23.20;99.90;;;;;;4976249;28;20089;-74
2022/01/03 08:47:50;;;;;;;6.32;1.83;;;23.00;99.90;;;;;;4979976;28;20027;-75
2022/01/03 08:50:18;;;;;;;6.60;1.77;;;22.90;99.90;;;;;;4976874;28;20018;-73
2022/01/03 08:52:46;;;;;;;9.25;2.15;;;22.90;99.90;;;;;;4983240;28;20041;-73
2022/01/03 08:55:14;;;;;;;7.50;1.50;;;22.80;99.90;;;;;;4994036;28;20026;-73
2022/01/03 08:57:42;;;;;;;10.77;1.95;;;22.70;99.90;;;;;;4994508;28;20114;-74
2022/01/03 09:00:10;;;;;;;6.20;1.75;;;22.70;99.90;;;;;;4994301;28;20044;-70
2022/01/03 09:02:37;;;;;;;8.60;1.90;;;22.80;99.90;;;;;;4994512;28;20054;-75
2022/01/03 09:05:05;;;;;;;7.78;1.92;;;22.70;99.90;;;;;;4994469;28;20053;-74
2022/01/03 09:07:32;;;;;;;6.85;1.45;;;22.80;99.90;;;;;;4994063;28;20026;-74
2022/01/03 09:10:00;;;;;;;12.25;2.42;;;22.80;99.90;;;;;;4978509;28;20073;-70
2022/01/03 09:12:27;;;;;;;9.77;2.10;;;22.70;99.90;;;;;;4977444;28;20027;-72
2022/01/03 09:14:54;;;;;;;9.10;1.48;;;22.60;99.90;;;;;;4975867;28;20084;-74
2022/01/03 09:17:22;;;;;;;14.57;2.25;;;22.60;99.90;;;;;;4975615;28;20046;-73
2022/01/03 09:19:50;;;;;;;15.52;2.40;;;22.50;99.90;;;;;;4975706;28;20030;-73
2022/01/03 09:22:23;;;;;;;9.73;2.00;;;22.50;99.90;;;;;;4975114;28;20038;-74
2022/01/03 09:30:15;;;;;;;9.95;1.55;;;22.30;99.90;;;;;;4975791;28;20037;-72
2022/01/03 09:32:43;;;;;;;11.35;2.42;;;22.30;99.90;;;;;;4975540;28;20041;-75
2022/01/03 09:35:11;;;;;;;17.48;2.35;;;22.30;99.90;;;;;;4975278;28;20027;-75
2022/01/03 09:37:39;;;;;;;8.05;1.38;;;22.20;99.90;;;;;;4975206;28;20102;-74
2022/01/03 09:40:07;;;;;;;14.70;2.42;;;22.20;99.90;;;;;;4975448;28;20022;-74
2022/01/03 09:42:35;;;;;;;7.40;2.10;;;22.20;99.90;;;;;;4975435;28;20524;-73
2022/01/03 09:45:11;;;;;;;12.15;2.88;;;22.20;99.90;;;;;;4975364;28;20031;-74
2022/01/03 09:47:44;;;;;;;11.57;2.55;;;22.10;99.90;;;;;;4978477;28;20395;-74
2022/01/03 09:50:14;;;;;;;14.23;2.60;;;22.10;99.90;;;;;;4988918;28;20037;-74
2022/01/03 09:52:46;;;;;;;13.13;1.88;;;22.10;99.90;;;;;;4994463;28;20395;-75
2022/01/03 09:55:18;;;;;;;13.43;2.38;;;22.10;99.90;;;;;;4994954;28;20023;-73
2022/01/03 09:57:46;;;;;;;17.67;2.33;;;22.10;99.90;;;;;;4994541;28;20022;-74
2022/01/03 10:00:16;;;;;;;7.05;1.70;;;22.00;99.90;;;;;;4995104;28;20037;-72
2022/01/03 10:02:46;;;;;;;11.63;2.70;;;21.90;99.90;;;;;;4995074;28;20026;-73
2022/01/03 10:05:14;;;;;;;12.40;2.15;;;21.90;99.90;;;;;;4994629;28;20030;-75
2022/01/03 10:07:41;;;;;;;11.68;2.50;;;21.90;99.90;;;;;;4987420;28;20384;-74
2022/01/03 10:10:10;;;;;;;9.68;2.17;;;21.90;99.90;;;;;;4978663;28;20073;-74
2022/01/03 10:12:38;;;;;;;6.57;2.00;;;21.90;99.90;;;;;;4975076;28;20019;-75
2022/01/03 10:15:10;;;;;;;12.98;2.67;;;21.90;99.90;;;;;;4980328;28;20602;-74
2022/01/03 10:17:39;;;;;;;7.95;2.22;;;21.90;99.90;;;;;;4973714;28;20126;-74
2022/01/03 10:20:10;;;;;;;11.30;2.33;;;21.80;99.90;;;;;;4974628;28;20085;-76
2022/01/03 10:22:39;;;;;;;13.20;2.35;;;21.80;99.90;;;;;;4973694;28;20034;-75
2022/01/03 10:25:15;;;;;;;7.85;2.13;;;21.80;99.90;;;;;;4974889;28;20046;-75
2022/01/03 10:27:48;;;;;;;15.05;2.80;;;21.70;99.90;;;;;;4981223;28;20050;-71
2022/01/03 10:30:29;;;;;;;10.00;2.30;;;21.70;99.90;;;;;;4974021;28;20417;-75
2022/01/03 10:32:57;;;;;;;12.80;2.33;;;21.70;99.90;;;;;;4973490;28;20023;-70
2022/01/03 10:35:24;;;;;;;14.25;2.63;;;21.70;99.90;;;;;;4977477;28;20022;-75
2022/01/03 10:37:52;;;;;;;12.73;2.53;;;21.60;99.90;;;;;;4973778;28;20077;-74
2022/01/03 10:40:31;;;;;;;9.30;1.80;;;21.60;99.90;;;;;;4978310;28;20038;-75
2022/01/03 10:43:19;;;;;;;9.13;2.00;;;21.60;99.90;;;;;;4981629;28;20039;-71
2022/01/03 10:45:47;;;;;;;12.05;2.38;;;21.60;99.90;;;;;;4972914;28;20042;-70
2022/01/03 10:48:33;;;;;;;7.50;1.80;;;21.60;99.90;;;;;;4975861;28;20035;-73
2022/01/03 10:51:02;;;;;;;8.55;1.90;;;21.60;99.90;;;;;;4992574;28;20030;-69
2022/01/03 10:53:41;;;;;;;11.65;2.35;;;21.50;99.90;;;;;;4993390;28;20058;-72
2022/01/03 10:56:41;;;;;;;9.90;2.25;;;21.50;99.90;;;;;;4991156;28;20081;-76
2022/01/03 10:59:14;;;;;;;12.60;2.55;;;21.50;99.90;;;;;;4971283;28;20035;-70
2022/01/03 11:01:46;;;;;;;9.93;2.33;;;21.50;99.90;;;;;;4992405;28;20068;-73
2022/01/03 11:04:50;;;;;;;11.85;2.45;;;21.40;99.90;;;;;;4993548;28;20117;-74
2022/01/03 11:13:06;;;;;;;14.15;1.77;;;21.40;99.90;;;;;;4993594;28;20061;-70
2022/01/03 11:15:35;;;;;;;7.90;1.92;;;21.30;99.90;;;;;;4993066;28;20022;-78
2022/01/03 11:18:15;;;;;;;8.45;2.38;;;21.40;99.90;;;;;;4993427;28;20015;-75
2022/01/03 11:20:45;;;;;;;12.07;1.98;;;21.30;99.90;;;;;;4993249;28;20030;-71
2022/01/03 11:23:20;;;;;;;7.80;2.03;;;21.30;99.90;;;;;;4993301;28;20041;-76
2022/01/03 11:25:49;;;;;;;15.43;2.28;;;21.20;99.90;;;;;;4994222;28;20023;-70
2022/01/03 11:28:17;;;;;;;7.65;2.13;;;21.20;99.90;;;;;;4991783;28;20439;-74
2022/01/03 11:30:45;;;;;;;13.60;1.80;;;21.30;99.90;;;;;;4988381;28;20018;-70
2022/01/03 11:33:15;;;;;;;11.90;2.63;;;21.30;99.90;;;;;;4992284;28;20092;-70
2022/01/03 11:35:50;;;;;;;17.60;2.70;;;21.20;99.90;;;;;;4988414;28;20093;-70
2022/01/03 11:38:21;;;;;;;10.38;2.38;;;21.20;99.90;;;;;;4995345;28;20040;-70
2022/01/03 11:40:50;;;;;;;11.82;1.80;;;21.20;99.90;;;;;;5000101;28;20026;-76
2022/01/03 11:43:18;;;;;;;13.98;2.55;;;21.20;99.90;;;;;;4998885;28;20093;-71
2022/01/03 11:45:45;;;;;;;19.08;2.72;;;21.20;99.90;;;;;;4995308;28;20028;-73
2022/01/03 11:48:13;;;;;;;14.80;3.50;;;21.20;99.90;;;;;;4999290;28;20057;-70
2022/01/03 11:50:42;;;;;;;15.23;3.05;;;21.20;99.90;;;;;;4999213;28;20084;-69
2022/01/03 11:53:11;;;;;;;14.68;2.10;;;21.20;99.90;;;;;;5002119;28;20022;-74
2022/01/03 11:55:40;;;;;;;12.40;3.00;;;21.20;99.90;;;;;;5000575;28;20506;-70
2022/01/03 11:58:19;;;;;;;7.88;1.85;;;21.20;99.90;;;;;;5001634;28;20495;-74
2022/01/03 12:03:53;;;;;;;12.40;2.20;;;21.10;99.90;;;;;;5005093;28;20212;-71
2022/01/03 12:06:34;;;;;;;13.63;2.75;;;21.10;99.90;;;;;;5005342;28;20166;-75
2022/01/03 12:09:06;;;;;;;8.55;1.88;;;21.10;99.90;;;;;;5005825;28;20034;-77
2022/01/03 12:11:41;;;;;;;13.73;2.40;;;21.10;99.90;;;;;;5006525;28;20558;-76
2022/01/03 12:14:12;;;;;;;15.65;3.03;;;21.00;99.90;;;;;;5006537;28;20026;-77
2022/01/03 12:16:41;;;;;;;11.38;2.78;;;21.00;99.90;;;;;;5016588;28;20415;-70
2022/01/03 12:19:10;;;;;;;12.35;2.28;;;21.00;99.90;;;;;;5016698;28;20025;-70
2022/01/03 12:21:55;;;;;;;8.27;2.00;;;21.00;99.90;;;;;;5016849;28;20362;-79
2022/01/03 12:24:37;;;;;;;12.23;2.20;;;21.00;99.90;;;;;;5016775;28;20537;-72
2022/01/03 12:27:13;;;;;;;10.88;2.17;;;21.00;99.90;;;;;;5016253;28;20494;-70
2022/01/03 12:29:56;;;;;;;10.00;2.10;;;21.00;99.90;;;;;;5016514;28;20026;-70
2022/01/03 12:32:30;;;;;;;10.45;2.53;;;21.00;99.90;;;;;;5016397;28;20030;-71
2022/01/03 12:35:22;;;;;;;12.43;2.30;;;20.90;99.90;;;;;;5016412;28;20022;-69
2022/01/03 12:37:56;;;;;;;7.05;1.73;;;20.90;99.90;;;;;;5010612;28;20513;-70
2022/01/03 12:40:31;;;;;;;9.18;1.27;;;20.90;99.90;;;;;;4997030;28;20085;-73
2022/01/03 12:43:06;;;;;;;11.85;3.00;;;20.80;99.90;;;;;;4996789;28;20031;-69
2022/01/03 12:45:34;;;;;;;13.82;2.42;;;20.60;99.90;;;;;;4996782;28;20038;-80
2022/01/03 12:48:11;;;;;;;19.23;2.13;;;20.60;99.90;;;;;;4996753;28;20098;-71
2022/01/03 12:50:45;;;;;;;8.23;1.35;;;20.50;99.90;;;;;;4996775;28;20424;-71
2022/01/03 12:53:27;;;;;;;5.18;1.38;;;20.40;99.90;;;;;;4996726;28;20046;-73
2022/01/03 12:56:00;;;;;;;9.90;2.42;;;20.40;99.90;;;;;;4996755;28;20030;-74
2022/01/03 12:58:28;;;;;;;10.70;2.00;;;20.40;99.90;;;;;;4996916;28;20058;-70
2022/01/03 13:01:08;;;;;;;9.07;2.33;;;20.30;99.90;;;;;;4996562;28;20026;-77
2022/01/03 13:03:49;;;;;;;6.22;1.67;;;20.30;99.90;;;;;;4995645;28;20391;-70
2022/01/03 13:06:27;;;;;;;13.50;2.47;;;20.30;99.90;;;;;;4996501;28;20034;-74
2022/01/03 13:08:57;;;;;;;9.35;3.05;;;20.30;99.90;;;;;;4996143;28;20033;-75
2022/01/03 13:11:50;;;;;;;12.52;2.90;;;20.40;99.90;;;;;;4996464;28;20023;-79
2022/01/03 13:14:23;;;;;;;10.88;2.30;;;20.40;99.90;;;;;;4994798;28;20373;-71
2022/01/03 13:16:56;;;;;;;7.20;1.60;;;20.30;99.90;;;;;;4996317;28;20554;-72
2022/01/03 13:19:37;;;;;;;11.40;2.20;;;20.30;99.90;;;;;;4996381;28;20039;-75
2022/01/03 13:22:08;;;;;;;6.30;1.60;;;20.20;99.90;;;;;;4996088;28;20022;-72